sensor_id;sensor_type;location;lat;lon;timestamp;pressure;altitude;pressure_sealevel;temperature;humidity
5138;BME280;53959;53.626;11.410;2023-05-07T00:01:12;101730.53;;;8.33;80.07
5138;BME280;53959;53.626;11.410;2023-05-07T00:03:37;101718.19;;;8.29;79.91
5138;BME280;53959;53.626;11.410;2023-05-07T00:06:03;101726.13;;;8.29;79.75
5138;BME280;53959;53.626;11.410;2023-05-07T00:08:28;101719.06;;;8.33;79.25
5138;BME280;53959;53.626;11.410;2023-05-07T00:10:54;101727.00;;;8.31;79.30
5138;BME280;53959;53.626;11.410;2023-05-07T00:13:19;101724.34;;;8.34;79.24
5138;BME280;53959;53.626;11.410;2023-05-07T00:15:45;101720.84;;;8.35;79.63
5138;BME280;53959;53.626;11.410;2023-05-07T00:18:10;101722.59;;;8.36;79.67
5138;BME280;53959;53.626;11.410;2023-05-07T00:20:35;101721.69;;;8.34;79.76
5138;BME280;53959;53.626;11.410;2023-05-07T00:23:01;101728.78;;;8.35;79.35
5138;BME280;53959;53.626;11.410;2023-05-07T00:25:26;101724.41;;;8.37;79.45
5138;BME280;53959;53.626;11.410;2023-05-07T00:27:52;101730.56;;;8.38;79.54
5138;BME280;53959;53.626;11.410;2023-05-07T00:30:17;101722.63;;;8.38;79.63
5138;BME280;53959;53.626;11.410;2023-05-07T00:32:42;101723.50;;;8.38;80.01
5138;BME280;53959;53.626;11.410;2023-05-07T00:35:10;101712.00;;;8.28;79.68
5138;BME280;53959;53.626;11.410;2023-05-07T00:37:36;101718.19;;;8.35;79.92
5138;BME280;53959;53.626;11.410;2023-05-07T00:40:01;101714.66;;;8.36;80.04
5138;BME280;53959;53.626;11.410;2023-05-07T00:42:30;101718.22;;;8.38;79.94
5138;BME280;53959;53.626;11.410;2023-05-07T00:44:57;101716.47;;;8.40;79.96
5138;BME280;53959;53.626;11.410;2023-05-07T00:47:23;101715.53;;;8.34;79.88
5138;BME280;53959;53.626;11.410;2023-05-07T00:49:50;101717.31;;;8.32;79.83
5138;BME280;53959;53.626;11.410;2023-05-07T00:52:16;101717.28;;;8.30;79.86
5138;BME280;53959;53.626;11.410;2023-05-07T00:54:42;101715.53;;;8.34;80.03
5138;BME280;53959;53.626;11.410;2023-05-07T00:57:09;101722.59;;;8.28;79.85
5138;BME280;53959;53.626;11.410;2023-05-07T00:59:36;101710.25;;;8.27;80.05
5138;BME280;53959;53.626;11.410;2023-05-07T01:02:01;101720.84;;;8.27;80.35
5138;BME280;53959;53.626;11.410;2023-05-07T01:04:27;101718.19;;;8.26;80.25
5138;BME280;53959;53.626;11.410;2023-05-07T01:06:54;101717.31;;;8.24;79.87
5138;BME280;53959;53.626;11.410;2023-05-07T01:09:22;101717.28;;;8.27;80.29
5138;BME280;53959;53.626;11.410;2023-05-07T01:11:49;101719.06;;;8.30;80.34
5138;BME280;53959;53.626;11.410;2023-05-07T01:14:14;101717.31;;;8.32;79.95
5138;BME280;53959;53.626;11.410;2023-05-07T01:16:40;101718.19;;;8.29;79.82
5138;BME280;53959;53.626;11.410;2023-05-07T01:19:08;101719.94;;;8.28;79.78
5138;BME280;53959;53.626;11.410;2023-05-07T01:21:36;101715.53;;;8.26;79.80
5138;BME280;53959;53.626;11.410;2023-05-07T01:24:04;101718.16;;;8.23;79.83
5138;BME280;53959;53.626;11.410;2023-05-07T01:26:31;101711.13;;;8.19;80.21
5138;BME280;53959;53.626;11.410;2023-05-07T01:28:57;101713.78;;;8.25;80.34
5138;BME280;53959;53.626;11.410;2023-05-07T01:31:23;101718.16;;;8.23;80.26
5138;BME280;53959;53.626;11.410;2023-05-07T01:33:50;101704.94;;;8.26;80.47
5138;BME280;53959;53.626;11.410;2023-05-07T01:36:18;101709.38;;;8.24;80.05
5138;BME280;53959;53.626;11.410;2023-05-07T01:38:45;101705.84;;;8.25;80.28
5138;BME280;53959;53.626;11.410;2023-05-07T01:41:11;101702.28;;;8.23;80.02
5138;BME280;53959;53.626;11.410;2023-05-07T01:43:37;101701.44;;;8.32;80.12
5138;BME280;53959;53.626;11.410;2023-05-07T01:46:03;101714.66;;;8.33;80.57
5138;BME280;53959;53.626;11.410;2023-05-07T01:48:28;101710.22;;;8.31;80.43
5138;BME280;53959;53.626;11.410;2023-05-07T01:50:55;101710.22;;;8.31;80.15
5138;BME280;53959;53.626;11.410;2023-05-07T01:53:20;101704.06;;;8.24;80.39
5138;BME280;53959;53.626;11.410;2023-05-07T01:55:45;101701.41;;;8.27;80.40
5138;BME280;53959;53.626;11.410;2023-05-07T01:58:11;101704.97;;;8.20;80.37
5138;BME280;53959;53.626;11.410;2023-05-07T02:00:37;101704.09;;;8.32;80.21
5138;BME280;53959;53.626;11.410;2023-05-07T02:03:02;101699.66;;;8.26;80.27
5138;BME280;53959;53.626;11.410;2023-05-07T02:05:41;101699.66;;;8.24;80.01
5138;BME280;53959;53.626;11.410;2023-05-07T02:08:14;101707.59;;;8.24;80.27
5138;BME280;53959;53.626;11.410;2023-05-07T02:10:40;101711.13;;;8.28;80.09
5138;BME280;53959;53.626;11.410;2023-05-07T02:13:06;101709.34;;;8.27;80.17
5138;BME280;53959;53.626;11.410;2023-05-07T02:15:31;101716.44;;;8.28;80.24
5138;BME280;53959;53.626;11.410;2023-05-07T02:18:04;101721.72;;;8.28;80.10
5138;BME280;53959;53.626;11.410;2023-05-07T02:20:30;101723.50;;;8.32;80.02
5138;BME280;53959;53.626;11.410;2023-05-07T02:22:56;101723.50;;;8.27;80.19
5138;BME280;53959;53.626;11.410;2023-05-07T02:25:21;101721.72;;;8.22;80.45
5138;BME280;53959;53.626;11.410;2023-05-07T02:27:47;101730.56;;;8.24;80.38
5138;BME280;53959;53.626;11.410;2023-05-07T02:30:14;101721.69;;;8.26;80.35
5138;BME280;53959;53.626;11.410;2023-05-07T02:32:40;101706.72;;;8.24;80.24
5138;BME280;53959;53.626;11.410;2023-05-07T02:35:05;101712.00;;;8.28;80.23
5138;BME280;53959;53.626;11.410;2023-05-07T02:37:31;101719.97;;;8.45;80.48
5138;BME280;53959;53.626;11.410;2023-05-07T02:39:56;101719.09;;;8.40;80.26
5138;BME280;53959;53.626;11.410;2023-05-07T02:42:21;101727.94;;;8.48;80.44
5138;BME280;53959;53.626;11.410;2023-05-07T02:44:47;101728.81;;;8.40;80.20
5138;BME280;53959;53.626;11.410;2023-05-07T02:47:13;101732.34;;;8.37;80.02
5138;BME280;53959;53.626;11.410;2023-05-07T02:49:40;101729.69;;;8.40;79.92
5138;BME280;53959;53.626;11.410;2023-05-07T02:52:07;101733.22;;;8.38;80.22
5138;BME280;53959;53.626;11.410;2023-05-07T02:54:32;101742.00;;;8.37;80.27
5138;BME280;53959;53.626;11.410;2023-05-07T02:56:57;101742.03;;;8.44;79.95
5138;BME280;53959;53.626;11.410;2023-05-07T02:59:23;101731.44;;;8.41;79.71
5138;BME280;53959;53.626;11.410;2023-05-07T03:01:49;101732.28;;;8.31;79.23
5138;BME280;53959;53.626;11.410;2023-05-07T03:04:14;101741.13;;;8.30;79.29
5138;BME280;53959;53.626;11.410;2023-05-07T03:06:40;101727.91;;;8.28;79.40
5138;BME280;53959;53.626;11.410;2023-05-07T03:09:07;101727.00;;;8.23;79.53
5138;BME280;53959;53.626;11.410;2023-05-07T03:11:32;101732.28;;;8.22;79.84
5138;BME280;53959;53.626;11.410;2023-05-07T03:13:57;101738.50;;;8.24;80.10
5138;BME280;53959;53.626;11.410;2023-05-07T03:16:23;101728.75;;;8.26;79.85
5138;BME280;53959;53.626;11.410;2023-05-07T03:18:48;101727.91;;;8.32;79.59
5138;BME280;53959;53.626;11.410;2023-05-07T03:21:13;101733.16;;;8.22;79.42
5138;BME280;53959;53.626;11.410;2023-05-07T03:23:39;101727.00;;;8.22;79.00
5138;BME280;53959;53.626;11.410;2023-05-07T03:26:04;101732.31;;;8.25;78.98
5138;BME280;53959;53.626;11.410;2023-05-07T03:28:29;101728.78;;;8.29;78.98
5138;BME280;53959;53.626;11.410;2023-05-07T03:30:59;101725.25;;;8.28;78.75
5138;BME280;53959;53.626;11.410;2023-05-07T03:33:24;101722.59;;;8.30;79.02
5138;BME280;53959;53.626;11.410;2023-05-07T03:35:50;101727.00;;;8.31;78.90
5138;BME280;53959;53.626;11.410;2023-05-07T03:38:20;101722.63;;;8.32;78.92
5138;BME280;53959;53.626;11.410;2023-05-07T03:40:45;101722.59;;;8.33;78.79
5138;BME280;53959;53.626;11.410;2023-05-07T03:43:11;101722.66;;;8.39;78.55
5138;BME280;53959;53.626;11.410;2023-05-07T03:45:40;101731.41;;;8.29;78.29
5138;BME280;53959;53.626;11.410;2023-05-07T03:48:10;101735.81;;;8.22;77.97
5138;BME280;53959;53.626;11.410;2023-05-07T03:50:35;101742.88;;;8.23;77.70
5138;BME280;53959;53.626;11.410;2023-05-07T03:53:01;101739.34;;;8.26;78.02
5138;BME280;53959;53.626;11.410;2023-05-07T03:55:27;101741.13;;;8.28;78.18
5138;BME280;53959;53.626;11.410;2023-05-07T03:57:57;101746.41;;;8.30;78.38
5138;BME280;53959;53.626;11.410;2023-05-07T04:00:25;101748.19;;;8.34;78.06
5138;BME280;53959;53.626;11.410;2023-05-07T04:02:50;101754.38;;;8.33;78.01
5138;BME280;53959;53.626;11.410;2023-05-07T04:05:23;101759.66;;;8.30;78.39
5138;BME280;53959;53.626;11.410;2023-05-07T04:07:51;101759.66;;;8.33;78.47
5138;BME280;53959;53.626;11.410;2023-05-07T04:10:23;101745.53;;;8.31;79.06
5138;BME280;53959;53.626;11.410;2023-05-07T04:12:51;101755.25;;;8.34;79.05
5138;BME280;53959;53.626;11.410;2023-05-07T04:15:20;101757.91;;;8.32;78.88
5138;BME280;53959;53.626;11.410;2023-05-07T04:17:45;101757.00;;;8.33;78.89
5138;BME280;53959;53.626;11.410;2023-05-07T04:20:15;101758.75;;;8.34;78.93
5138;BME280;53959;53.626;11.410;2023-05-07T04:22:43;101763.19;;;8.32;78.61
5138;BME280;53959;53.626;11.410;2023-05-07T04:25:09;101758.75;;;8.26;78.45
5138;BME280;53959;53.626;11.410;2023-05-07T04:27:35;101763.19;;;8.34;78.86
5138;BME280;53959;53.626;11.410;2023-05-07T04:30:02;101769.41;;;8.37;78.95
5138;BME280;53959;53.626;11.410;2023-05-07T04:32:32;101761.44;;;8.36;78.83
5138;BME280;53959;53.626;11.410;2023-05-07T04:34:58;101767.66;;;8.39;78.56
5138;BME280;53959;53.626;11.410;2023-05-07T04:37:25;101770.28;;;8.39;78.68
5138;BME280;53959;53.626;11.410;2023-05-07T04:39:51;101767.63;;;8.41;78.63
5138;BME280;53959;53.626;11.410;2023-05-07T04:42:17;101771.16;;;8.38;78.38
5138;BME280;53959;53.626;11.410;2023-05-07T04:44:44;101774.69;;;8.40;78.67
5138;BME280;53959;53.626;11.410;2023-05-07T04:47:10;101770.28;;;8.42;78.80
5138;BME280;53959;53.626;11.410;2023-05-07T04:49:37;101769.41;;;8.45;78.62
5138;BME280;53959;53.626;11.410;2023-05-07T04:52:03;101777.34;;;8.37;78.25
5138;BME280;53959;53.626;11.410;2023-05-07T04:54:28;101770.28;;;8.38;78.42
5138;BME280;53959;53.626;11.410;2023-05-07T04:56:55;101772.06;;;8.45;78.32
5138;BME280;53959;53.626;11.410;2023-05-07T04:59:20;101773.81;;;8.46;78.07
5138;BME280;53959;53.626;11.410;2023-05-07T05:01:46;101780.00;;;8.46;78.02
5138;BME280;53959;53.626;11.410;2023-05-07T05:04:12;101780.88;;;8.44;77.72
5138;BME280;53959;53.626;11.410;2023-05-07T05:06:39;101776.47;;;8.49;77.53
5138;BME280;53959;53.626;11.410;2023-05-07T05:09:05;101790.59;;;8.43;76.70
5138;BME280;53959;53.626;11.410;2023-05-07T05:11:32;101788.81;;;8.44;77.15
5138;BME280;53959;53.626;11.410;2023-05-07T05:13:59;101788.81;;;8.45;77.08
5138;BME280;53959;53.626;11.410;2023-05-07T05:16:25;101784.44;;;8.50;76.89
5138;BME280;53959;53.626;11.410;2023-05-07T05:18:51;101787.94;;;8.51;77.25
5138;BME280;53959;53.626;11.410;2023-05-07T05:21:18;101791.47;;;8.61;77.27
5138;BME280;53959;53.626;11.410;2023-05-07T05:23:46;101796.75;;;8.61;76.97
5138;BME280;53959;53.626;11.410;2023-05-07T05:26:13;101801.19;;;8.57;76.94
5138;BME280;53959;53.626;11.410;2023-05-07T05:28:38;101804.72;;;8.61;76.44
5138;BME280;53959;53.626;11.410;2023-05-07T05:31:04;101809.13;;;8.52;76.13
5138;BME280;53959;53.626;11.410;2023-05-07T05:33:33;101801.19;;;8.52;75.74
5138;BME280;53959;53.626;11.410;2023-05-07T05:36:02;101803.84;;;8.48;75.67
5138;BME280;53959;53.626;11.410;2023-05-07T05:38:28;101804.72;;;8.64;75.68
5138;BME280;53959;53.626;11.410;2023-05-07T05:40:54;101811.78;;;8.59;75.55
5138;BME280;53959;53.626;11.410;2023-05-07T05:43:19;101818.84;;;8.66;75.45
5138;BME280;53959;53.626;11.410;2023-05-07T05:45:45;101816.22;;;8.66;74.95
5138;BME280;53959;53.626;11.410;2023-05-07T05:48:10;101822.38;;;8.63;74.77
5138;BME280;53959;53.626;11.410;2023-05-07T05:50:36;101818.84;;;8.66;74.59
5138;BME280;53959;53.626;11.410;2023-05-07T05:53:03;101832.09;;;8.75;74.58
5138;BME280;53959;53.626;11.410;2023-05-07T05:55:29;101825.03;;;8.82;74.88
5138;BME280;53959;53.626;11.410;2023-05-07T05:57:57;101829.47;;;8.89;74.95
5138;BME280;53959;53.626;11.410;2023-05-07T06:00:23;101830.34;;;8.88;75.29
5138;BME280;53959;53.626;11.410;2023-05-07T06:02:56;101829.44;;;8.86;74.79
5138;BME280;53959;53.626;11.410;2023-05-07T06:05:24;101825.91;;;8.93;75.26
5138;BME280;53959;53.626;11.410;2023-05-07T06:07:51;101835.63;;;8.97;75.00
5138;BME280;53959;53.626;11.410;2023-05-07T06:10:17;101829.47;;;8.92;75.27
5138;BME280;53959;53.626;11.410;2023-05-07T06:12:43;101832.09;;;8.95;74.90
5138;BME280;53959;53.626;11.410;2023-05-07T06:15:09;101836.50;;;8.90;74.91
5138;BME280;53959;53.626;11.410;2023-05-07T06:17:35;101839.16;;;8.85;75.00
5138;BME280;53959;53.626;11.410;2023-05-07T06:20:01;101834.75;;;8.89;74.81
5138;BME280;53959;53.626;11.410;2023-05-07T06:22:26;101829.44;;;9.03;74.19
5138;BME280;53959;53.626;11.410;2023-05-07T06:24:53;101836.50;;;9.13;74.43
5138;BME280;53959;53.626;11.410;2023-05-07T06:27:19;101831.22;;;9.14;74.16
5138;BME280;53959;53.626;11.410;2023-05-07T06:29:45;101832.09;;;9.18;74.58
5138;BME280;53959;53.626;11.410;2023-05-07T06:32:14;101831.22;;;9.11;74.16
5138;BME280;53959;53.626;11.410;2023-05-07T06:34:41;101832.09;;;9.07;74.19
5138;BME280;53959;53.626;11.410;2023-05-07T06:37:07;101836.47;;;9.25;73.85
5138;BME280;53959;53.626;11.410;2023-05-07T06:39:49;101839.13;;;9.20;74.19
5138;BME280;53959;53.626;11.410;2023-05-07T06:42:15;101840.00;;;9.21;73.68
5138;BME280;53959;53.626;11.410;2023-05-07T06:44:43;101838.22;;;9.38;73.34
5138;BME280;53959;53.626;11.410;2023-05-07T06:47:12;101833.81;;;9.39;72.99
5138;BME280;53959;53.626;11.410;2023-05-07T06:49:38;101826.75;;;9.35;73.21
5138;BME280;53959;53.626;11.410;2023-05-07T06:52:04;101839.13;;;9.34;72.93
5138;BME280;53959;53.626;11.410;2023-05-07T06:54:29;101840.00;;;9.32;73.31
5138;BME280;53959;53.626;11.410;2023-05-07T06:56:55;101837.31;;;9.42;73.35
5138;BME280;53959;53.626;11.410;2023-05-07T06:59:23;101839.97;;;9.48;73.10
5138;BME280;53959;53.626;11.410;2023-05-07T07:01:49;101847.00;;;9.62;72.62
5138;BME280;53959;53.626;11.410;2023-05-07T07:04:15;101846.16;;;9.51;72.98
5138;BME280;53959;53.626;11.410;2023-05-07T07:06:42;101844.31;;;9.66;72.77
5138;BME280;53959;53.626;11.410;2023-05-07T07:09:10;101845.22;;;9.68;72.31
5138;BME280;53959;53.626;11.410;2023-05-07T07:11:35;101850.50;;;9.79;72.02
5138;BME280;53959;53.626;11.410;2023-05-07T07:14:01;101842.53;;;9.73;71.85
5138;BME280;53959;53.626;11.410;2023-05-07T07:16:29;101844.28;;;9.80;72.61
5138;BME280;53959;53.626;11.410;2023-05-07T07:18:54;101845.16;;;9.87;71.98
5138;BME280;53959;53.626;11.410;2023-05-07T07:21:19;101844.16;;;10.11;71.68
5138;BME280;53959;53.626;11.410;2023-05-07T07:23:45;101836.97;;;10.33;70.84
5138;BME280;53959;53.626;11.410;2023-05-07T07:26:11;101847.50;;;10.51;70.17
5138;BME280;53959;53.626;11.410;2023-05-07T07:28:42;101847.59;;;10.33;69.80
5138;BME280;53959;53.626;11.410;2023-05-07T07:31:08;101844.84;;;10.50;69.77
5138;BME280;53959;53.626;11.410;2023-05-07T07:33:33;101841.03;;;10.87;69.02
5138;BME280;53959;53.626;11.410;2023-05-07T07:35:58;101851.75;;;10.75;68.87
5138;BME280;53959;53.626;11.410;2023-05-07T07:38:24;101862.47;;;10.64;68.62
5138;BME280;53959;53.626;11.410;2023-05-07T07:40:50;101852.63;;;10.74;68.29
5138;BME280;53959;53.626;11.410;2023-05-07T07:43:15;101839.03;;;11.14;67.75
5138;BME280;53959;53.626;11.410;2023-05-07T07:45:42;101841.03;;;11.75;65.76
5138;BME280;53959;53.626;11.410;2023-05-07T07:48:07;101837.28;;;11.91;64.50
5138;BME280;53959;53.626;11.410;2023-05-07T07:50:35;101841.47;;;12.12;63.77
5138;BME280;53959;53.626;11.410;2023-05-07T07:53:01;101838.78;;;12.14;63.27
5138;BME280;53959;53.626;11.410;2023-05-07T07:55:27;101832.91;;;11.87;64.00
5138;BME280;53959;53.626;11.410;2023-05-07T07:57:53;101842.41;;;12.07;64.22
5138;BME280;53959;53.626;11.410;2023-05-07T08:00:19;101843.78;;;13.92;59.07
5138;BME280;53959;53.626;11.410;2023-05-07T08:02:50;101840.97;;;14.77;55.70
5138;BME280;53959;53.626;11.410;2023-05-07T08:05:22;101839.97;;;15.17;55.01
5138;BME280;53959;53.626;11.410;2023-05-07T08:07:48;101839.75;;;13.24;59.75
5138;BME280;53959;53.626;11.410;2023-05-07T08:10:19;101843.38;;;14.88;55.44
5138;BME280;53959;53.626;11.410;2023-05-07T08:12:48;101846.81;;;15.92;53.04
5138;BME280;53959;53.626;11.410;2023-05-07T08:15:14;101844.66;;;16.63;52.66
5138;BME280;53959;53.626;11.410;2023-05-07T08:17:40;101845.72;;;17.38;49.68
5138;BME280;53959;53.626;11.410;2023-05-07T08:20:06;101849.66;;;16.75;50.88
5138;BME280;53959;53.626;11.410;2023-05-07T08:22:31;101846.97;;;14.87;55.07
5138;BME280;53959;53.626;11.410;2023-05-07T08:24:57;101854.31;;;13.54;58.46
5138;BME280;53959;53.626;11.410;2023-05-07T08:27:22;101848.13;;;13.96;57.90
5138;BME280;53959;53.626;11.410;2023-05-07T08:29:48;101837.81;;;16.24;52.57
5138;BME280;53959;53.626;11.410;2023-05-07T08:32:15;101844.97;;;15.94;53.89
5138;BME280;53959;53.626;11.410;2023-05-07T08:34:41;101848.78;;;14.85;54.73
5138;BME280;53959;53.626;11.410;2023-05-07T08:37:06;101845.84;;;15.29;53.63
5138;BME280;53959;53.626;11.410;2023-05-07T08:39:32;101846.72;;;14.60;55.90
5138;BME280;53959;53.626;11.410;2023-05-07T08:42:00;101846.81;;;15.60;53.23
5138;BME280;53959;53.626;11.410;2023-05-07T08:44:34;101839.22;;;15.77;53.21
5138;BME280;53959;53.626;11.410;2023-05-07T08:47:06;101842.59;;;14.44;54.91
5138;BME280;53959;53.626;11.410;2023-05-07T08:49:33;101836.63;;;15.07;53.22
5138;BME280;53959;53.626;11.410;2023-05-07T08:51:59;101835.13;;;16.82;49.04
5138;BME280;53959;53.626;11.410;2023-05-07T08:54:25;101827.97;;;16.25;50.21
5138;BME280;53959;53.626;11.410;2023-05-07T08:56:51;101833.97;;;16.33;50.85
5138;BME280;53959;53.626;11.410;2023-05-07T08:59:18;101840.13;;;18.16;46.43
5138;BME280;53959;53.626;11.410;2023-05-07T09:01:44;101837.97;;;18.26;46.66
5138;BME280;53959;53.626;11.410;2023-05-07T09:04:10;101833.88;;;19.05;44.87
5138;BME280;53959;53.626;11.410;2023-05-07T09:06:36;101829.19;;;18.66;45.15
5138;BME280;53959;53.626;11.410;2023-05-07T09:09:03;101837.44;;;16.93;48.34
5138;BME280;53959;53.626;11.410;2023-05-07T09:11:31;101827.88;;;18.77;45.92
5138;BME280;53959;53.626;11.410;2023-05-07T09:13:59;101831.00;;;18.88;44.47
5138;BME280;53959;53.626;11.410;2023-05-07T09:16:29;101836.00;;;18.97;44.39
5138;BME280;53959;53.626;11.410;2023-05-07T09:18:58;101833.47;;;18.72;44.69
5138;BME280;53959;53.626;11.410;2023-05-07T09:21:24;101838.22;;;17.21;47.54
5138;BME280;53959;53.626;11.410;2023-05-07T09:23:53;101839.22;;;17.44;47.56
5138;BME280;53959;53.626;11.410;2023-05-07T09:26:22;101840.75;;;16.45;50.36
5138;BME280;53959;53.626;11.410;2023-05-07T09:28:48;101843.28;;;16.49;50.60
5138;BME280;53959;53.626;11.410;2023-05-07T09:31:14;101846.06;;;19.14;44.76
5138;BME280;53959;53.626;11.410;2023-05-07T09:33:40;101841.88;;;19.07;44.58
5138;BME280;53959;53.626;11.410;2023-05-07T09:36:08;101849.84;;;17.97;46.50
5138;BME280;53959;53.626;11.410;2023-05-07T09:38:36;101842.47;;;16.75;49.13
5138;BME280;53959;53.626;11.410;2023-05-07T09:41:11;101839.44;;;15.37;52.30
5138;BME280;53959;53.626;11.410;2023-05-07T09:43:43;101851.41;;;15.89;51.46
5138;BME280;53959;53.626;11.410;2023-05-07T09:46:13;101847.28;;;17.69;47.61
5138;BME280;53959;53.626;11.410;2023-05-07T09:48:44;101849.78;;;15.49;52.26
5138;BME280;53959;53.626;11.410;2023-05-07T09:51:51;101847.09;;;16.98;49.26
5138;BME280;53959;53.626;11.410;2023-05-07T09:54:18;101851.94;;;18.36;46.00
5138;BME280;53959;53.626;11.410;2023-05-07T09:56:48;101853.41;;;17.22;48.17
5138;BME280;53959;53.626;11.410;2023-05-07T09:59:16;101854.19;;;16.15;51.06
5138;BME280;53959;53.626;11.410;2023-05-07T10:01:43;101843.47;;;16.15;51.61
5138;BME280;53959;53.626;11.410;2023-05-07T10:04:10;101840.09;;;15.77;52.08
5138;BME280;53959;53.626;11.410;2023-05-07T10:06:37;101838.47;;;17.15;48.70
5138;BME280;53959;53.626;11.410;2023-05-07T10:09:05;101849.09;;;18.62;45.96
5138;BME280;53959;53.626;11.410;2023-05-07T10:11:34;101842.91;;;17.66;47.30
5138;BME280;53959;53.626;11.410;2023-05-07T10:14:02;101848.53;;;15.62;52.10
5138;BME280;53959;53.626;11.410;2023-05-07T10:16:31;101842.53;;;16.72;50.93
5138;BME280;53959;53.626;11.410;2023-05-07T10:18:58;101850.59;;;18.01;47.33
5138;BME280;53959;53.626;11.410;2023-05-07T10:21:26;101839.69;;;18.29;45.83
5138;BME280;53959;53.626;11.410;2023-05-07T10:23:59;101851.78;;;18.17;46.11
5138;BME280;53959;53.626;11.410;2023-05-07T10:26:28;101839.56;;;17.35;48.19
5138;BME280;53959;53.626;11.410;2023-05-07T10:28:59;101858.41;;;18.32;45.65
5138;BME280;53959;53.626;11.410;2023-05-07T10:34:40;101847.78;;;17.55;47.73
5138;BME280;53959;53.626;11.410;2023-05-07T10:37:08;101846.06;;;16.46;49.34
5138;BME280;53959;53.626;11.410;2023-05-07T10:39:34;101851.16;;;15.96;50.88
5138;BME280;53959;53.626;11.410;2023-05-07T10:42:09;101850.09;;;16.02;51.04
5138;BME280;53959;53.626;11.410;2023-05-07T10:44:36;101856.94;;;15.48;52.63
5138;BME280;53959;53.626;11.410;2023-05-07T10:47:10;101856.81;;;15.53;52.18
5138;BME280;53959;53.626;11.410;2023-05-07T10:52:19;101847.41;;;15.04;53.88
5138;BME280;53959;53.626;11.410;2023-05-07T10:57:46;101849.47;;;14.93;53.55
5138;BME280;53959;53.626;11.410;2023-05-07T11:00:41;101848.38;;;15.36;52.60
5138;BME280;53959;53.626;11.410;2023-05-07T11:03:11;101847.91;;;15.52;51.71
5138;BME280;53959;53.626;11.410;2023-05-07T11:05:43;101848.72;;;15.56;52.81
5138;BME280;53959;53.626;11.410;2023-05-07T11:11:55;101850.22;;;15.99;50.63
5138;BME280;53959;53.626;11.410;2023-05-07T11:17:14;101852.03;;;15.64;51.89
5138;BME280;53959;53.626;11.410;2023-05-07T11:19:54;101844.59;;;15.77;51.63
5138;BME280;53959;53.626;11.410;2023-05-07T11:25:19;101838.03;;;16.17;50.88
5138;BME280;53959;53.626;11.410;2023-05-07T11:27:49;101827.91;;;15.98;50.77
5138;BME280;53959;53.626;11.410;2023-05-07T11:30:18;101828.31;;;16.14;50.93
5138;BME280;53959;53.626;11.410;2023-05-07T11:32:47;101831.16;;;16.08;50.91
5138;BME280;53959;53.626;11.410;2023-05-07T11:35:13;101832.78;;;16.14;50.34
5138;BME280;53959;53.626;11.410;2023-05-07T11:37:42;101830.91;;;16.17;49.35
5138;BME280;53959;53.626;11.410;2023-05-07T11:40:09;101832.25;;;16.31;49.50
5138;BME280;53959;53.626;11.410;2023-05-07T11:42:38;101828.84;;;16.25;50.19
5138;BME280;53959;53.626;11.410;2023-05-07T11:45:04;101821.28;;;16.10;50.50
5138;BME280;53959;53.626;11.410;2023-05-07T11:47:31;101826.63;;;15.81;50.56
5138;BME280;53959;53.626;11.410;2023-05-07T11:49:56;101834.53;;;15.85;50.88
5138;BME280;53959;53.626;11.410;2023-05-07T11:52:24;101833.59;;;15.86;50.96
5138;BME280;53959;53.626;11.410;2023-05-07T11:54:54;101836.50;;;15.78;50.49
5138;BME280;53959;53.626;11.410;2023-05-07T11:57:20;101834.69;;;15.79;50.54
5138;BME280;53959;53.626;11.410;2023-05-07T11:59:46;101831.66;;;16.21;49.76
5138;BME280;53959;53.626;11.410;2023-05-07T12:02:15;101827.59;;;16.37;49.29
5138;BME280;53959;53.626;11.410;2023-05-07T12:04:41;101835.59;;;16.67;49.30
5138;BME280;53959;53.626;11.410;2023-05-07T12:07:13;101842.31;;;16.52;49.11
5138;BME280;53959;53.626;11.410;2023-05-07T12:09:39;101838.31;;;16.65;48.57
5138;BME280;53959;53.626;11.410;2023-05-07T12:12:05;101834.03;;;16.60;48.35
5138;BME280;53959;53.626;11.410;2023-05-07T12:14:31;101839.88;;;16.74;48.49
5138;BME280;53959;53.626;11.410;2023-05-07T12:16:59;101833.03;;;16.62;48.97
5138;BME280;53959;53.626;11.410;2023-05-07T12:19:28;101840.41;;;16.84;48.58
5138;BME280;53959;53.626;11.410;2023-05-07T12:21:54;101834.16;;;17.10;48.39
5138;BME280;53959;53.626;11.410;2023-05-07T12:24:19;101830.72;;;16.51;48.03
5138;BME280;53959;53.626;11.410;2023-05-07T12:26:45;101831.06;;;16.95;47.76
5138;BME280;53959;53.626;11.410;2023-05-07T12:29:10;101825.09;;;16.59;48.25
5138;BME280;53959;53.626;11.410;2023-05-07T12:31:36;101825.38;;;16.50;48.57
5138;BME280;53959;53.626;11.410;2023-05-07T12:34:02;101822.94;;;16.70;47.95
5138;BME280;53959;53.626;11.410;2023-05-07T12:36:36;101824.88;;;17.45;47.39
5138;BME280;53959;53.626;11.410;2023-05-07T12:39:02;101820.56;;;17.89;45.05
5138;BME280;53959;53.626;11.410;2023-05-07T12:41:29;101829.47;;;17.66;45.75
5138;BME280;53959;53.626;11.410;2023-05-07T12:43:56;101824.44;;;17.32;46.49
5138;BME280;53959;53.626;11.410;2023-05-07T12:46:22;101825.75;;;17.20;46.66
5138;BME280;53959;53.626;11.410;2023-05-07T12:48:48;101830.03;;;17.51;46.73
5138;BME280;53959;53.626;11.410;2023-05-07T12:51:14;101824.63;;;17.01;47.01
5138;BME280;53959;53.626;11.410;2023-05-07T12:53:41;101820.34;;;17.70;45.52
5138;BME280;53959;53.626;11.410;2023-05-07T12:56:07;101829.25;;;17.47;45.32
5138;BME280;53959;53.626;11.410;2023-05-07T12:58:34;101831.38;;;18.57;43.90
5138;BME280;53959;53.626;11.410;2023-05-07T13:01:04;101823.94;;;18.85;42.62
5138;BME280;53959;53.626;11.410;2023-05-07T13:03:34;101826.47;;;19.10;42.30
5138;BME280;53959;53.626;11.410;2023-05-07T13:06:05;101828.59;;;18.14;43.98
5138;BME280;53959;53.626;11.410;2023-05-07T13:08:33;101823.81;;;17.76;44.78
5138;BME280;53959;53.626;11.410;2023-05-07T13:10:59;101829.78;;;17.07;45.51
5138;BME280;53959;53.626;11.410;2023-05-07T13:13:29;101829.47;;;17.16;45.75